Time;durP1;ratioP1;P1;durP2;ratioP2;P2;SDS_P1;SDS_P2;PMS_P1;PMS_P2;Temp;Humidity;BMP_temperature;BMP_pressure;BME280_temperature;BME280_humidity;BME280_pressure;Samples;Min_cycle;Max_cycle;Signal;HPM_P1;HPM_P2
2022/07/08 00:02:16;;;;;;;2.50;2.23;;;16.20;95.80;;;;;;5076779;28;20455;-48
2022/07/08 00:04:42;;;;;;;4.07;2.40;;;16.20;95.80;;;;;;5076267;28;20572;-43
2022/07/08 00:07:08;;;;;;;7.53;2.90;;;16.20;95.80;;;;;;5077164;28;20192;-46
2022/07/08 00:09:33;;;;;;;3.60;2.30;;;16.20;95.30;;;;;;5076508;28;20733;-49
2022/07/08 00:11:59;;;;;;;3.97;2.87;;;16.20;94.20;;;;;;5075457;28;20186;-46
2022/07/08 00:14:24;;;;;;;7.23;2.53;;;16.10;93.20;;;;;;5076847;28;20197;-46
2022/07/08 00:16:50;;;;;;;6.87;2.80;;;16.00;93.20;;;;;;5077402;28;20611;-48
2022/07/08 00:19:19;;;;;;;12.93;3.97;;;16.00;92.60;;;;;;5077442;28;20245;-47
2022/07/08 00:21:49;;;;;;;7.00;2.53;;;15.90;91.90;;;;;;5076068;28;20706;-47
2022/07/08 00:24:15;;;;;;;5.00;2.73;;;15.90;91.50;;;;;;5076263;28;20416;-46
2022/07/08 00:26:41;;;;;;;8.53;3.37;;;15.80;91.20;;;;;;5076467;28;20411;-48
2022/07/08 00:29:07;;;;;;;3.33;2.70;;;15.70;91.40;;;;;;5076039;28;20422;-47
2022/07/08 00:31:33;;;;;;;8.23;3.00;;;15.70;91.40;;;;;;5076674;28;20641;-48
2022/07/08 00:33:59;;;;;;;6.53;3.23;;;15.60;91.50;;;;;;5077193;28;20424;-50
2022/07/08 00:36:25;;;;;;;7.50;2.80;;;15.50;91.50;;;;;;5077900;28;20436;-45
2022/07/08 00:38:50;;;;;;;9.10;3.27;;;15.40;91.80;;;;;;5076974;28;20475;-46
2022/07/08 00:41:16;;;;;;;7.23;3.13;;;15.40;91.80;;;;;;5077226;28;20190;-47
2022/07/08 00:43:44;;;;;;;8.10;2.80;;;15.30;91.50;;;;;;5077301;28;20184;-46
2022/07/08 00:46:11;;;;;;;6.10;3.97;;;15.20;91.40;;;;;;5077602;28;20177;-46
2022/07/08 00:48:38;;;;;;;12.90;4.50;;;15.20;90.70;;;;;;5076077;28;20445;-45
2022/07/08 00:51:06;;;;;;;6.20;3.57;;;15.00;91.00;;;;;;5076422;28;20510;-45
2022/07/08 00:53:34;;;;;;;9.40;3.87;;;15.00;91.00;;;;;;5080778;28;20423;-44
2022/07/08 00:56:00;;;;;;;6.47;4.23;;;14.80;90.80;;;;;;5080053;28;20439;-47
2022/07/08 00:58:26;;;;;;;10.43;5.90;;;14.80;90.80;;;;;;5079961;28;20455;-44
2022/07/08 01:00:53;;;;;;;8.10;4.80;;;14.70;90.80;;;;;;5080310;28;20458;-47
2022/07/08 01:03:19;;;;;;;7.70;4.20;;;14.70;90.60;;;;;;5080783;28;20431;-45
2022/07/08 01:05:45;;;;;;;9.70;4.30;;;14.60;90.70;;;;;;5079981;28;20459;-47
2022/07/08 01:08:11;;;;;;;7.17;4.20;;;14.50;90.80;;;;;;5080365;28;20420;-45
2022/07/08 01:10:37;;;;;;;8.63;4.80;;;14.50;90.80;;;;;;5079535;28;21086;-44
2022/07/08 01:13:04;;;;;;;5.87;4.00;;;14.40;90.50;;;;;;5080228;28;20584;-45
2022/07/08 01:15:29;;;;;;;8.57;4.80;;;14.40;90.70;;;;;;5079212;28;20500;-44
2022/07/08 01:17:55;;;;;;;10.70;4.57;;;14.30;90.80;;;;;;5079354;28;20429;-44
2022/07/08 01:20:21;;;;;;;8.33;4.50;;;14.20;90.80;;;;;;5079937;28;20196;-45
2022/07/08 01:22:46;;;;;;;5.80;3.97;;;14.20;90.80;;;;;;5081091;28;20528;-45
2022/07/08 01:25:12;;;;;;;6.83;3.77;;;14.10;90.70;;;;;;5079893;28;20591;-46
2022/07/08 01:27:38;;;;;;;4.97;3.60;;;14.10;91.10;;;;;;5079170;28;20212;-44
2022/07/08 01:30:06;;;;;;;7.37;3.50;;;14.00;91.10;;;;;;5071409;28;20496;-46
2022/07/08 01:32:36;;;;;;;3.97;3.43;;;14.00;90.80;;;;;;5077829;28;20475;-44
2022/07/08 01:35:02;;;;;;;7.87;4.43;;;14.00;91.00;;;;;;5078677;28;20463;-48
2022/07/08 01:37:28;;;;;;;8.00;4.80;;;14.00;91.10;;;;;;5079563;28;20836;-47
2022/07/08 01:39:54;;;;;;;6.40;3.50;;;13.90;91.30;;;;;;5078969;28;20573;-47
2022/07/08 01:42:20;;;;;;;10.57;3.80;;;13.80;91.80;;;;;;5078743;28;20292;-47
2022/07/08 01:44:45;;;;;;;7.03;4.60;;;13.80;91.80;;;;;;5079487;28;20270;-45
2022/07/08 01:47:11;;;;;;;5.40;3.57;;;13.80;91.90;;;;;;5080441;28;20239;-45
2022/07/08 01:49:36;;;;;;;8.27;4.03;;;13.70;92.10;;;;;;5080404;28;20177;-44
2022/07/08 01:52:02;;;;;;;9.10;4.47;;;13.70;92.40;;;;;;5080354;28;20486;-47
2022/07/08 01:54:28;;;;;;;6.80;5.13;;;13.60;92.60;;;;;;5079087;28;20196;-46
2022/07/08 01:57:35;;;;;;;8.33;5.17;;;13.60;92.80;;;;;;5079871;28;20547;-48
2022/07/08 01:59:43;;;;;;;8.43;4.57;;;13.60;92.90;;;;;;5074584;28;20185;-44
2022/07/08 02:02:10;;;;;;;9.83;3.70;;;13.60;92.80;;;;;;5079088;28;20436;-47
2022/07/08 02:04:36;;;;;;;7.00;4.50;;;13.50;93.10;;;;;;5079318;28;20419;-50
2022/07/08 02:07:02;;;;;;;7.90;3.97;;;13.40;93.30;;;;;;5078526;28;20444;-45
2022/07/08 02:09:28;;;;;;;10.47;4.60;;;13.30;93.40;;;;;;5079173;28;20423;-46
2022/07/08 02:14:37;;;;;;;7.23;4.27;;;13.30;93.70;;;;;;5079128;28;20196;-46
2022/07/08 02:17:03;;;;;;;7.90;4.67;;;13.30;93.90;;;;;;5079524;28;20428;-44
2022/07/08 02:19:30;;;;;;;7.37;4.73;;;13.20;94.10;;;;;;5079936;28;20197;-44
2022/07/08 02:21:56;;;;;;;5.37;4.47;;;13.20;94.10;;;;;;5079908;28;20575;-45
2022/07/08 02:24:22;;;;;;;6.30;3.90;;;13.20;94.50;;;;;;5079166;28;20898;-46
2022/07/08 02:26:47;;;;;;;6.40;4.00;;;13.20;94.30;;;;;;5078244;28;20526;-46
2022/07/08 02:29:13;;;;;;;6.77;4.20;;;13.10;94.30;;;;;;5079441;28;20420;-45
2022/07/08 02:31:39;;;;;;;9.63;4.70;;;13.10;94.50;;;;;;5079316;28;20226;-45
2022/07/08 02:34:04;;;;;;;6.63;4.17;;;13.00;94.50;;;;;;5079574;28;20644;-47
2022/07/08 02:36:30;;;;;;;7.47;4.00;;;13.00;94.60;;;;;;5078737;28;20196;-44
2022/07/08 02:38:55;;;;;;;7.37;4.23;;;13.00;94.50;;;;;;5079363;28;20272;-48
2022/07/08 02:41:21;;;;;;;7.40;4.30;;;13.00;94.70;;;;;;5077779;28;20192;-46
2022/07/08 02:43:47;;;;;;;9.00;4.13;;;13.00;94.40;;;;;;5077806;28;20186;-45
2022/07/08 02:46:13;;;;;;;9.37;4.37;;;12.90;94.50;;;;;;5078032;28;20212;-46
2022/07/08 02:48:39;;;;;;;5.77;4.70;;;12.90;94.70;;;;;;5078339;28;20173;-48
2022/07/08 02:51:05;;;;;;;6.50;4.23;;;12.90;94.70;;;;;;5077307;28;20467;-46
2022/07/08 02:53:30;;;;;;;7.33;4.10;;;12.90;94.80;;;;;;5077851;28;20464;-45
2022/07/08 02:55:56;;;;;;;6.80;4.13;;;12.90;94.90;;;;;;5078795;28;20173;-47
2022/07/08 02:58:22;;;;;;;5.20;4.10;;;12.80;95.00;;;;;;5078901;28;20178;-44
2022/07/08 03:00:47;;;;;;;8.23;4.27;;;12.80;95.10;;;;;;5078831;28;20178;-44
2022/07/08 03:03:13;;;;;;;8.63;3.80;;;12.80;95.30;;;;;;5077570;28;20191;-44
2022/07/08 03:05:38;;;;;;;6.37;3.80;;;12.80;95.10;;;;;;5077736;28;20186;-46
2022/07/08 03:08:04;;;;;;;8.43;4.23;;;12.80;95.10;;;;;;5077463;28;20184;-46
2022/07/08 03:10:30;;;;;;;13.10;4.43;;;12.80;95.30;;;;;;5077177;28;20271;-46
2022/07/08 03:12:56;;;;;;;10.23;4.10;;;12.80;95.20;;;;;;5077389;28;20200;-47
2022/07/08 03:15:22;;;;;;;9.40;4.13;;;12.80;95.20;;;;;;5076677;28;20194;-43
2022/07/08 03:17:48;;;;;;;4.90;3.80;;;12.80;95.10;;;;;;5077681;28;20493;-45
2022/07/08 03:20:14;;;;;;;8.20;4.00;;;12.80;95.20;;;;;;5077506;28;20178;-43
2022/07/08 03:22:39;;;;;;;7.33;3.93;;;12.90;95.20;;;;;;5077536;28;20449;-46
2022/07/08 03:25:05;;;;;;;6.60;4.00;;;12.90;95.00;;;;;;5077982;28;20177;-44
2022/07/08 03:27:31;;;;;;;7.40;4.00;;;12.90;94.90;;;;;;5077333;28;20607;-48
2022/07/08 03:29:57;;;;;;;8.67;3.67;;;12.90;95.00;;;;;;5076718;28;20763;-50
2022/07/08 03:32:23;;;;;;;9.30;4.40;;;12.90;94.90;;;;;;5075980;28;20249;-47
2022/07/08 03:34:49;;;;;;;7.00;3.90;;;12.90;94.60;;;;;;5074949;28;20181;-56
2022/07/08 03:37:15;;;;;;;5.00;3.70;;;12.90;94.70;;;;;;5074663;28;20497;-44
2022/07/08 03:39:41;;;;;;;5.10;4.57;;;13.00;94.90;;;;;;5074557;28;20408;-48
2022/07/08 03:42:07;;;;;;;7.53;3.90;;;13.00;94.70;;;;;;5074404;28;20447;-45
2022/07/08 03:44:32;;;;;;;6.03;3.50;;;13.10;94.80;;;;;;5073193;28;20192;-44
2022/07/08 03:46:58;;;;;;;7.37;3.60;;;13.10;94.90;;;;;;5075749;28;20918;-45
2022/07/08 03:49:24;;;;;;;3.73;3.20;;;13.10;94.70;;;;;;5076181;28;20475;-45
2022/07/08 03:51:49;;;;;;;5.33;3.57;;;13.10;94.80;;;;;;5076684;28;20205;-45
2022/07/08 03:54:15;;;;;;;5.50;3.40;;;13.20;94.80;;;;;;5077261;28;20264;-45
2022/07/08 03:56:40;;;;;;;5.37;4.00;;;13.20;94.50;;;;;;5076257;28;20249;-46
2022/07/08 03:59:06;;;;;;;7.20;3.60;;;13.20;94.30;;;;;;5075079;28;20193;-44
2022/07/08 04:01:32;;;;;;;5.43;3.07;;;13.20;94.30;;;;;;5074516;28;20304;-45
2022/07/08 04:03:57;;;;;;;9.07;3.37;;;13.20;94.20;;;;;;5074703;28;20178;-44
2022/07/08 04:06:23;;;;;;;5.30;3.73;;;13.20;94.30;;;;;;5072077;28;20181;-44
2022/07/08 04:08:49;;;;;;;6.53;3.40;;;13.30;94.40;;;;;;5070745;28;20224;-45
2022/07/08 04:11:15;;;;;;;8.53;3.43;;;13.40;94.40;;;;;;5071017;28;20201;-45
2022/07/08 04:13:40;;;;;;;8.87;3.90;;;13.40;94.40;;;;;;5072943;28;20200;-46
2022/07/08 04:16:11;;;;;;;6.27;3.40;;;13.40;94.20;;;;;;5074685;28;20456;-47
2022/07/08 04:18:38;;;;;;;7.93;3.50;;;13.50;94.10;;;;;;5075026;28;20235;-46
2022/07/08 04:21:05;;;;;;;5.37;3.93;;;13.50;94.00;;;;;;5075296;28;20473;-47
2022/07/08 04:23:30;;;;;;;7.77;3.50;;;13.50;94.00;;;;;;5073341;28;20552;-47
2022/07/08 04:25:56;;;;;;;4.73;3.03;;;13.50;94.00;;;;;;5073863;28;20893;-47
2022/07/08 04:28:21;;;;;;;6.37;3.23;;;13.50;94.00;;;;;;5074918;28;20254;-46
2022/07/08 04:30:47;;;;;;;7.40;3.63;;;13.60;94.10;;;;;;5074785;28;20237;-45
2022/07/08 04:33:13;;;;;;;6.50;3.80;;;13.60;93.90;;;;;;5074159;28;20194;-44
2022/07/08 04:35:38;;;;;;;6.27;3.57;;;13.60;93.60;;;;;;5074997;28;20181;-44
2022/07/08 04:38:04;;;;;;;6.43;4.03;;;13.60;93.60;;;;;;5073351;28;20174;-49
2022/07/08 04:40:30;;;;;;;8.50;4.20;;;13.60;93.90;;;;;;5073633;28;20174;-45
2022/07/08 04:42:55;;;;;;;4.60;3.57;;;13.60;94.00;;;;;;5073425;28;20524;-45
2022/07/08 04:45:21;;;;;;;7.63;3.90;;;13.70;94.20;;;;;;5073461;28;20544;-45
2022/07/08 04:47:47;;;;;;;9.50;4.43;;;13.80;93.60;;;;;;5072322;28;20209;-45
2022/07/08 04:50:13;;;;;;;8.20;3.30;;;13.80;93.60;;;;;;5070550;28;20773;-46
2022/07/08 04:52:39;;;;;;;3.90;3.07;;;13.90;93.40;;;;;;5072832;28;20434;-46
2022/07/08 04:55:05;;;;;;;5.97;3.70;;;13.90;93.10;;;;;;5071449;28;20413;-47
2022/07/08 04:57:32;;;;;;;6.80;3.23;;;14.00;92.80;;;;;;5069244;28;20278;-46
2022/07/08 04:59:59;;;;;;;7.90;3.20;;;14.00;92.70;;;;;;5072454;28;20431;-46
2022/07/08 05:02:26;;;;;;;6.53;3.57;;;14.10;92.80;;;;;;5070219;28;20753;-45
2022/07/08 05:04:52;;;;;;;11.63;4.47;;;14.10;92.80;;;;;;5072269;28;20437;-46
2022/07/08 05:07:18;;;;;;;5.93;4.37;;;14.20;92.40;;;;;;5073187;28;20523;-45
2022/07/08 05:09:44;;;;;;;9.40;4.27;;;14.20;92.50;;;;;;5071925;28;20454;-48
2022/07/08 05:12:10;;;;;;;6.07;3.33;;;14.30;92.20;;;;;;5071382;28;20490;-47
2022/07/08 05:14:36;;;;;;;5.00;3.73;;;14.40;92.10;;;;;;5072421;28;20416;-45
2022/07/08 05:17:02;;;;;;;5.87;3.47;;;14.50;92.00;;;;;;5072436;28;20526;-44
2022/07/08 05:19:27;;;;;;;4.93;3.17;;;14.60;91.80;;;;;;5072268;28;20170;-44
2022/07/08 05:21:53;;;;;;;9.27;3.70;;;14.70;91.80;;;;;;5072447;28;20440;-45
2022/07/08 05:24:19;;;;;;;6.90;3.10;;;14.80;91.00;;;;;;5071957;28;20173;-46
2022/07/08 05:26:44;;;;;;;6.90;4.53;;;14.90;91.10;;;;;;5071294;28;20370;-47
2022/07/08 05:29:10;;;;;;;4.60;3.07;;;15.00;90.80;;;;;;5071158;28;20181;-47
2022/07/08 05:31:36;;;;;;;8.60;2.83;;;15.00;90.70;;;;;;5070576;28;20230;-45
2022/07/08 05:34:01;;;;;;;6.03;3.57;;;15.10;90.70;;;;;;5073115;28;20663;-46
2022/07/08 05:36:27;;;;;;;5.13;2.63;;;15.10;90.40;;;;;;5072707;28;20209;-45
2022/07/08 05:38:53;;;;;;;9.37;3.70;;;15.20;90.30;;;;;;5076197;28;20174;-45
2022/07/08 05:41:18;;;;;;;5.13;2.80;;;15.30;90.00;;;;;;5071422;28;20296;-47
2022/07/08 05:43:44;;;;;;;6.27;3.10;;;15.40;89.50;;;;;;5073216;28;20421;-45
2022/07/08 05:46:11;;;;;;;6.10;3.10;;;15.50;89.80;;;;;;5075344;28;20244;-46
2022/07/08 05:48:36;;;;;;;6.30;2.70;;;15.50;88.70;;;;;;5075914;28;20190;-44
2022/07/08 05:51:02;;;;;;;5.07;3.23;;;15.60;89.00;;;;;;5074829;28;20463;-46
2022/07/08 05:53:28;;;;;;;8.23;3.17;;;15.60;88.90;;;;;;5071581;28;20185;-44
2022/07/08 05:55:53;;;;;;;6.00;2.60;;;15.60;88.20;;;;;;5074204;28;20178;-47
2022/07/08 05:58:19;;;;;;;4.30;2.70;;;15.70;87.90;;;;;;5076702;28;20584;-44
2022/07/08 06:00:45;;;;;;;11.60;3.30;;;15.80;88.50;;;;;;5076656;28;20205;-47
2022/07/08 06:03:10;;;;;;;5.50;3.27;;;15.90;88.10;;;;;;5074595;28;20201;-44
2022/07/08 06:05:37;;;;;;;4.20;2.63;;;16.00;87.40;;;;;;5076101;28;20432;-44
2022/07/08 06:08:04;;;;;;;7.80;3.80;;;16.00;86.90;;;;;;5074642;28;20641;-45
2022/07/08 06:10:30;;;;;;;8.40;3.50;;;16.00;86.40;;;;;;5074637;28;20688;-46
2022/07/08 06:12:56;;;;;;;4.67;2.60;;;16.10;87.10;;;;;;5074194;28;20825;-47
2022/07/08 06:15:22;;;;;;;9.00;3.30;;;16.20;86.80;;;;;;5077182;28;20416;-44
2022/07/08 06:17:47;;;;;;;7.37;3.90;;;16.30;87.10;;;;;;5075892;28;20192;-46
2022/07/08 06:20:14;;;;;;;5.50;2.70;;;16.40;86.00;;;;;;5074901;28;20187;-45
2022/07/08 06:22:40;;;;;;;5.20;2.97;;;16.50;85.80;;;;;;5074346;28;20665;-47
2022/07/08 06:25:06;;;;;;;7.27;3.10;;;16.50;85.30;;;;;;5075594;28;20830;-45
2022/07/08 06:27:32;;;;;;;3.87;2.30;;;16.50;84.90;;;;;;5074723;28;20543;-46
2022/07/08 06:29:58;;;;;;;6.90;3.00;;;16.70;84.90;;;;;;5075638;28;20918;-45
2022/07/08 06:32:24;;;;;;;6.13;2.63;;;16.80;84.40;;;;;;5074600;28;20210;-48
2022/07/08 06:34:49;;;;;;;5.57;3.17;;;16.90;84.20;;;;;;5076319;28;20575;-46
2022/07/08 06:37:15;;;;;;;8.77;3.20;;;17.00;83.40;;;;;;5073630;28;20202;-44
2022/07/08 06:39:41;;;;;;;7.13;2.73;;;17.10;83.40;;;;;;5073981;28;20686;-47
2022/07/08 06:42:07;;;;;;;4.80;2.43;;;17.00;82.40;;;;;;5075858;28;20212;-45
2022/07/08 06:44:33;;;;;;;5.27;2.10;;;16.90;82.10;;;;;;5074913;28;20412;-46
2022/07/08 06:46:59;;;;;;;6.53;2.00;;;16.90;82.30;;;;;;5074270;28;20922;-45
2022/07/08 06:49:24;;;;;;;4.20;2.30;;;16.90;81.20;;;;;;5074682;28;20179;-45
2022/07/08 06:51:50;;;;;;;4.67;1.80;;;17.00;81.10;;;;;;5073229;28;20267;-46
2022/07/08 06:57:00;;;;;;;3.83;1.53;;;17.10;80.00;;;;;;5075279;28;20546;-48
2022/07/08 06:59:26;;;;;;;4.97;2.23;;;17.30;77.10;;;;;;5077644;28;20409;-47
2022/07/08 07:01:52;;;;;;;4.50;2.20;;;17.30;77.60;;;;;;5076579;28;20531;-45
2022/07/08 07:04:18;;;;;;;7.93;2.40;;;17.40;78.60;;;;;;5076002;28;20560;-45
2022/07/08 07:06:44;;;;;;;3.97;1.97;;;17.40;78.40;;;;;;5074618;28;20647;-51
2022/07/08 07:09:10;;;;;;;3.57;1.87;;;17.50;77.60;;;;;;5073589;28;20408;-45
2022/07/08 07:11:38;;;;;;;6.00;2.10;;;17.60;78.40;;;;;;5060974;28;20512;-47
2022/07/08 07:14:04;;;;;;;4.57;2.33;;;17.90;78.20;;;;;;5054839;28;20424;-45
2022/07/08 07:16:29;;;;;;;4.00;2.23;;;18.20;76.60;;;;;;5055322;28;20425;-46
2022/07/08 07:18:55;;;;;;;5.60;2.00;;;18.50;76.10;;;;;;5054478;28;20417;-45
2022/07/08 07:21:20;;;;;;;5.00;2.20;;;18.90;74.70;;;;;;5054582;28;20174;-44
2022/07/08 07:23:46;;;;;;;6.73;2.27;;;19.30;75.80;;;;;;5055491;28;20534;-45
2022/07/08 07:26:12;;;;;;;4.10;2.10;;;19.70;75.30;;;;;;5062290;28;20185;-45
2022/07/08 07:28:38;;;;;;;9.13;2.40;;;19.70;71.50;;;;;;5072262;28;20292;-46
2022/07/08 07:31:04;;;;;;;2.47;1.80;;;19.80;72.50;;;;;;5069780;28;21079;-50
2022/07/08 07:33:30;;;;;;;6.33;2.33;;;20.20;72.20;;;;;;5073223;28;20332;-46
2022/07/08 07:35:57;;;;;;;8.10;2.57;;;20.60;69.20;;;;;;5069142;28;20538;-46
2022/07/08 07:38:22;;;;;;;6.70;2.23;;;20.80;69.80;;;;;;5070280;28;20174;-47
2022/07/08 07:40:48;;;;;;;4.33;2.13;;;21.10;69.00;;;;;;5069544;28;20866;-44
2022/07/08 07:43:14;;;;;;;4.33;2.13;;;21.30;65.10;;;;;;5072502;28;20266;-46
2022/07/08 07:45:39;;;;;;;3.70;2.07;;;21.40;63.60;;;;;;5071912;28;20175;-46
2022/07/08 07:48:05;;;;;;;3.80;2.30;;;21.20;62.80;;;;;;5074262;28;20316;-48
2022/07/08 07:50:31;;;;;;;4.33;2.10;;;21.10;63.30;;;;;;5071643;28;20199;-47
2022/07/08 07:52:56;;;;;;;5.27;2.10;;;21.10;63.70;;;;;;5072498;28;20293;-48
2022/07/08 07:55:22;;;;;;;4.57;1.80;;;21.30;62.90;;;;;;5060985;28;20211;-46
2022/07/08 07:57:48;;;;;;;4.90;2.27;;;21.50;62.60;;;;;;5050806;28;20186;-47
2022/07/08 08:00:15;;;;;;;3.80;2.50;;;21.80;59.50;;;;;;5050606;28;20170;-47
2022/07/08 08:02:41;;;;;;;5.63;1.90;;;22.00;58.90;;;;;;5049711;28;20536;-44
2022/07/08 08:05:09;;;;;;;5.40;1.90;;;22.00;58.30;;;;;;5048704;28;20801;-45
2022/07/08 08:07:39;;;;;;;3.50;2.00;;;22.40;59.00;;;;;;5050955;28;20435;-44
2022/07/08 08:10:06;;;;;;;3.40;1.97;;;22.70;57.00;;;;;;5052780;28;20460;-45
2022/07/08 08:12:31;;;;;;;3.77;1.80;;;22.90;57.20;;;;;;5052601;28;20433;-50
2022/07/08 08:14:57;;;;;;;2.60;1.43;;;22.90;57.00;;;;;;5052156;28;20486;-44
2022/07/08 08:17:23;;;;;;;7.53;2.43;;;22.90;57.00;;;;;;5051587;28;20454;-46
2022/07/08 08:19:48;;;;;;;3.43;2.03;;;23.00;55.10;;;;;;5049852;28;20533;-44
2022/07/08 08:22:14;;;;;;;3.60;1.90;;;23.10;54.10;;;;;;5047168;28;20186;-46
2022/07/08 08:24:40;;;;;;;6.43;2.40;;;23.40;54.10;;;;;;5048213;28;20187;-47
2022/07/08 08:27:05;;;;;;;2.37;1.70;;;23.00;52.00;;;;;;5048401;28;20179;-46
2022/07/08 08:29:31;;;;;;;3.70;2.53;;;22.70;54.00;;;;;;5050402;28;20183;-47
2022/07/08 08:31:58;;;;;;;9.03;3.00;;;22.40;53.50;;;;;;5051866;28;20226;-47
2022/07/08 08:34:23;;;;;;;3.27;2.10;;;22.30;53.40;;;;;;5068351;28;20238;-45
2022/07/08 08:36:49;;;;;;;4.83;1.93;;;21.90;53.50;;;;;;5053310;28;20430;-46
2022/07/08 08:39:15;;;;;;;4.70;2.30;;;21.50;53.90;;;;;;5053975;28;20176;-45
2022/07/08 08:41:41;;;;;;;4.57;2.20;;;21.40;54.70;;;;;;5052799;28;20189;-47
2022/07/08 08:44:08;;;;;;;4.23;2.60;;;21.10;53.70;;;;;;5053206;28;20417;-45
2022/07/08 08:46:33;;;;;;;4.50;1.90;;;20.60;54.40;;;;;;5051258;28;20446;-44
2022/07/08 08:49:01;;;;;;;4.17;2.03;;;20.40;55.90;;;;;;5052440;28;20430;-46
2022/07/08 08:51:27;;;;;;;3.70;1.77;;;20.60;55.70;;;;;;5052301;28;20300;-47
2022/07/08 08:53:54;;;;;;;3.03;1.80;;;20.80;55.00;;;;;;5052542;28;20408;-44
2022/07/08 08:56:20;;;;;;;4.10;1.53;;;20.70;54.40;;;;;;5053020;28;20413;-44
2022/07/08 08:58:47;;;;;;;3.80;2.13;;;20.60;54.60;;;;;;5054559;28;20418;-46
2022/07/08 09:01:13;;;;;;;3.37;1.77;;;20.60;54.50;;;;;;5053212;28;20412;-46
2022/07/08 09:03:39;;;;;;;6.90;1.97;;;20.80;54.30;;;;;;5053535;28;20427;-47
2022/07/08 09:06:05;;;;;;;3.00;1.90;;;20.70;54.20;;;;;;5053641;28;20820;-45
2022/07/08 09:08:32;;;;;;;5.67;2.00;;;20.70;55.00;;;;;;5053558;28;20419;-43
2022/07/08 09:10:58;;;;;;;4.60;2.03;;;20.60;55.30;;;;;;5052845;28;20473;-43
2022/07/08 09:13:25;;;;;;;3.63;1.93;;;20.70;54.80;;;;;;5054715;28;20845;-45
2022/07/08 09:15:55;;;;;;;3.07;1.90;;;20.80;55.00;;;;;;5057028;28;20741;-44
2022/07/08 09:18:22;;;;;;;2.70;1.93;;;21.30;55.00;;;;;;5055196;28;20499;-45
2022/07/08 09:20:53;;;;;;;3.97;2.07;;;21.70;53.10;;;;;;5056111;28;20438;-47
2022/07/08 09:23:31;;;;;;;5.40;2.83;;;22.20;53.30;;;;;;5056153;28;20446;-45
2022/07/08 09:25:59;;;;;;;3.07;1.90;;;22.60;53.10;;;;;;5076025;28;20416;-46
2022/07/08 09:28:35;;;;;;;4.50;2.37;;;23.00;52.20;;;;;;5069442;28;20428;-45
2022/07/08 09:31:09;;;;;;;7.23;2.57;;;23.40;52.50;;;;;;5064706;28;20499;-44
2022/07/08 09:33:35;;;;;;;3.73;1.70;;;23.90;51.30;;;;;;5069821;28;20428;-47
2022/07/08 09:36:02;;;;;;;5.13;2.23;;;24.20;50.10;;;;;;5076328;28;20410;-45
2022/07/08 09:38:29;;;;;;;2.90;1.77;;;24.40;48.90;;;;;;5077197;28;20463;-44
2022/07/08 09:41:06;;;;;;;3.00;1.80;;;24.30;48.20;;;;;;5074850;28;20817;-46
2022/07/08 09:43:33;;;;;;;5.53;1.77;;;23.90;48.10;;;;;;5076636;28;20439;-45
2022/07/08 09:46:04;;;;;;;4.50;2.27;;;24.00;49.90;;;;;;5076501;28;20841;-48
2022/07/08 09:48:30;;;;;;;6.07;2.30;;;24.10;49.50;;;;;;5075050;28;20495;-47
2022/07/08 09:50:55;;;;;;;5.73;1.67;;;24.40;49.20;;;;;;5073774;28;20969;-46
2022/07/08 09:53:23;;;;;;;4.87;2.00;;;24.40;48.90;;;;;;5073199;28;20421;-46
2022/07/08 09:55:54;;;;;;;6.03;2.27;;;24.50;48.40;;;;;;5072029;28;20714;-46
2022/07/08 09:58:23;;;;;;;3.50;2.10;;;24.90;49.70;;;;;;5072828;28;20432;-45
2022/07/08 10:00:50;;;;;;;4.43;2.00;;;24.60;47.70;;;;;;5073647;28;20457;-44
2022/07/08 10:03:17;;;;;;;5.17;2.33;;;24.90;48.70;;;;;;5073683;28;20463;-46
2022/07/08 10:05:43;;;;;;;5.33;2.33;;;25.00;47.70;;;;;;5073728;28;20892;-47
2022/07/08 10:08:10;;;;;;;3.00;1.80;;;25.30;48.10;;;;;;5069075;28;20454;-46
2022/07/08 10:10:39;;;;;;;6.17;2.00;;;25.60;47.20;;;;;;5065960;28;20690;-46
2022/07/08 10:13:05;;;;;;;3.10;1.60;;;25.70;45.60;;;;;;5074203;28;20433;-45
2022/07/08 10:15:36;;;;;;;4.40;1.97;;;25.80;45.50;;;;;;5074306;28;20418;-44
2022/07/08 10:18:11;;;;;;;3.73;2.27;;;25.80;45.20;;;;;;5073005;28;20948;-47
2022/07/08 10:20:39;;;;;;;3.40;1.70;;;25.80;45.30;;;;;;5073755;28;20422;-45
2022/07/08 10:23:35;;;;;;;6.20;2.30;;;25.20;45.50;;;;;;5071922;28;21011;-46
2022/07/08 10:26:02;;;;;;;4.03;2.10;;;25.30;46.80;;;;;;5074360;28;20461;-45
2022/07/08 10:29:01;;;;;;;5.30;2.13;;;25.50;46.10;;;;;;5073319;28;20984;-48
2022/07/08 10:31:29;;;;;;;3.27;2.13;;;25.70;46.00;;;;;;5073456;28;20615;-45
2022/07/08 10:34:01;;;;;;;4.97;1.93;;;26.10;46.10;;;;;;5071602;28;20867;-47
2022/07/08 10:36:26;;;;;;;3.33;1.83;;;26.20;44.60;;;;;;5070296;28;20446;-45
2022/07/08 10:38:54;;;;;;;4.50;1.83;;;26.40;45.50;;;;;;5072034;28;20689;-45
2022/07/08 10:41:22;;;;;;;4.03;1.70;;;26.60;44.80;;;;;;5072808;28;20215;-46
2022/07/08 10:43:52;;;;;;;4.50;2.20;;;26.60;44.00;;;;;;5073948;28;20422;-47
2022/07/08 10:46:20;;;;;;;4.10;2.00;;;27.00;44.50;;;;;;5073421;28;20406;-46
2022/07/08 10:48:55;;;;;;;4.17;2.20;;;27.30;44.40;;;;;;5073362;28;20697;-46
2022/07/08 10:51:24;;;;;;;3.17;2.20;;;27.60;44.00;;;;;;5072573;28;20502;-48
2022/07/08 10:53:54;;;;;;;3.23;1.70;;;27.80;43.90;;;;;;5073191;28;20412;-48
2022/07/08 10:56:58;;;;;;;4.47;2.43;;;28.10;43.20;;;;;;5070821;28;20434;-46
2022/07/08 10:59:37;;;;;;;2.33;1.93;;;27.10;41.80;;;;;;5072069;28;20464;-44
2022/07/08 11:02:11;;;;;;;4.53;1.90;;;26.90;43.30;;;;;;5073579;28;20423;-46
2022/07/08 11:04:40;;;;;;;3.00;2.53;;;27.20;43.80;;;;;;5071488;28;20448;-46
2022/07/08 11:07:14;;;;;;;3.30;2.03;;;27.40;43.40;;;;;;5072954;28;20419;-47
2022/07/08 11:09:41;;;;;;;2.57;2.07;;;27.90;44.00;;;;;;5071926;28;20442;-48
2022/07/08 11:12:13;;;;;;;3.00;1.70;;;28.30;42.80;;;;;;5072630;28;20737;-46
2022/07/08 11:14:46;;;;;;;3.97;1.93;;;28.60;39.80;;;;;;5068158;28;20505;-48
2022/07/08 11:17:15;;;;;;;3.67;1.60;;;28.40;39.50;;;;;;5073373;28;20438;-45
2022/07/08 11:19:42;;;;;;;3.73;2.10;;;28.30;41.80;;;;;;5070537;28;20405;-47
2022/07/08 11:22:09;;;;;;;5.60;2.00;;;28.80;42.10;;;;;;5067509;28;21070;-46
2022/07/08 11:24:37;;;;;;;5.23;2.10;;;29.20;40.70;;;;;;5067791;28;20486;-47
2022/07/08 11:27:03;;;;;;;4.13;1.93;;;29.40;39.40;;;;;;5071930;28;20446;-47
2022/07/08 11:29:28;;;;;;;2.10;1.73;;;29.30;39.80;;;;;;5071402;28;20526;-47
2022/07/08 11:31:58;;;;;;;7.30;2.00;;;28.90;38.70;;;;;;5070457;28;20578;-47
2022/07/08 11:34:24;;;;;;;6.53;2.60;;;29.30;39.80;;;;;;5071234;28;20261;-47
2022/07/08 11:36:58;;;;;;;2.43;1.63;;;29.40;40.00;;;;;;5071881;28;20509;-47
2022/07/08 11:39:24;;;;;;;2.70;2.40;;;29.80;39.60;;;;;;5075059;28;20444;-44
2022/07/08 11:41:51;;;;;;;3.70;1.80;;;30.10;38.90;;;;;;5072271;28;20426;-46
2022/07/08 11:44:20;;;;;;;3.33;1.70;;;30.10;38.10;;;;;;5070876;28;20409;-46
2022/07/08 11:46:56;;;;;;;3.67;1.40;;;30.00;38.10;;;;;;5071567;28;20394;-50
2022/07/08 11:49:22;;;;;;;3.80;2.30;;;29.90;37.00;;;;;;5070584;28;20472;-46
2022/07/08 11:51:50;;;;;;;2.80;1.50;;;29.30;38.90;;;;;;5069505;28;20479;-47
2022/07/08 11:54:19;;;;;;;3.20;2.07;;;29.40;38.40;;;;;;5071052;28;20407;-46
2022/07/08 11:56:45;;;;;;;3.60;1.47;;;29.60;39.40;;;;;;5070171;28;20398;-48
2022/07/08 11:59:10;;;;;;;3.30;1.60;;;29.70;38.40;;;;;;5071166;28;20394;-47
2022/07/08 12:01:36;;;;;;;3.50;1.70;;;29.90;38.20;;;;;;5071539;28;20398;-51
2022/07/08 12:04:08;;;;;;;3.43;1.67;;;30.00;37.90;;;;;;5069660;28;20177;-48
2022/07/08 12:06:34;;;;;;;2.43;1.53;;;30.30;37.90;;;;;;5069753;28;20414;-47
2022/07/08 12:09:09;;;;;;;3.07;1.70;;;30.00;36.60;;;;;;5068310;28;20502;-46
2022/07/08 12:11:46;;;;;;;3.20;1.60;;;30.10;37.10;;;;;;5072078;28;20471;-48
2022/07/08 12:14:13;;;;;;;2.53;1.60;;;30.20;37.30;;;;;;5072830;28;20416;-49
2022/07/08 12:16:55;;;;;;;3.90;1.60;;;30.40;37.20;;;;;;5074565;28;20694;-48
2022/07/08 12:19:39;;;;;;;7.33;1.90;;;30.50;36.80;;;;;;5074212;28;20430;-46
2022/07/08 12:22:06;;;;;;;3.33;1.33;;;30.50;36.20;;;;;;5073538;28;20819;-45
2022/07/08 12:24:39;;;;;;;5.13;1.70;;;30.60;37.20;;;;;;5073555;28;20415;-46
2022/07/08 12:27:06;;;;;;;5.47;2.20;;;30.60;36.30;;;;;;5074681;28;20427;-45
2022/07/08 12:29:36;;;;;;;3.40;1.37;;;30.30;35.10;;;;;;5072349;28;20414;-46
2022/07/08 12:32:03;;;;;;;4.50;1.70;;;30.00;35.50;;;;;;5071608;28;20489;-46
2022/07/08 12:34:29;;;;;;;3.93;1.63;;;29.90;35.50;;;;;;5073000;28;20889;-45
2022/07/08 12:37:18;;;;;;;4.57;1.77;;;29.50;36.90;;;;;;5071389;28;20391;-44
2022/07/08 12:39:46;;;;;;;3.13;1.47;;;29.70;37.10;;;;;;5070531;28;20552;-48
2022/07/08 12:42:11;;;;;;;4.13;1.53;;;30.30;37.50;;;;;;5071615;28;20820;-47
2022/07/08 12:44:39;;;;;;;7.07;1.90;;;30.50;37.80;;;;;;5071256;28;20536;-47
2022/07/08 12:47:12;;;;;;;5.83;2.00;;;31.00;37.00;;;;;;5072620;28;20181;-46
2022/07/08 12:49:39;;;;;;;3.47;1.93;;;31.50;36.10;;;;;;5076839;28;20480;-46
2022/07/08 12:52:06;;;;;;;3.57;1.80;;;31.70;36.10;;;;;;5076146;28;20483;-48